createdAt,value
2022-08-26T00:01:56.976Z,18.50
2022-08-26T00:04:25.731Z,18.50
2022-08-26T00:06:54.989Z,18.40
2022-08-26T00:09:24.784Z,18.40
2022-08-26T00:11:54.041Z,18.40
2022-08-26T00:14:21.844Z,18.40
2022-08-26T00:16:49.145Z,18.30
2022-08-26T00:19:18.592Z,18.30
2022-08-26T00:21:48.686Z,18.30
2022-08-26T00:24:19.320Z,18.20
2022-08-26T00:26:46.556Z,18.30
2022-08-26T00:29:13.780Z,18.20
2022-08-26T00:31:42.282Z,18.20
2022-08-26T00:34:11.137Z,18.20
2022-08-26T00:36:39.808Z,18.20
2022-08-26T00:39:09.053Z,18.20
2022-08-26T00:41:39.263Z,18.20
2022-08-26T00:44:07.332Z,18.10
2022-08-26T00:46:39.836Z,18.10
2022-08-26T00:49:25.949Z,18.10
2022-08-26T00:51:55.437Z,18.10
2022-08-26T00:54:27.033Z,18.00
2022-08-26T00:57:15.949Z,18.00
2022-08-26T00:59:47.778Z,18.00
2022-08-26T01:02:20.054Z,17.90
2022-08-26T01:04:58.035Z,17.80
2022-08-26T01:07:31.180Z,17.80
2022-08-26T01:10:01.206Z,17.80
2022-08-26T01:12:31.880Z,17.80
2022-08-26T01:14:59.586Z,17.80
2022-08-26T01:17:26.666Z,17.80
2022-08-26T01:20:04.039Z,17.80
2022-08-26T01:22:42.132Z,17.80
2022-08-26T01:25:11.306Z,17.70
2022-08-26T01:27:38.841Z,17.70
2022-08-26T01:30:06.710Z,17.60
2022-08-26T01:32:34.510Z,17.60
2022-08-26T01:35:02.462Z,17.60
2022-08-26T01:37:34.485Z,17.60
2022-08-26T01:40:01.616Z,17.60
2022-08-26T01:42:28.908Z,17.60
2022-08-26T01:45:00.996Z,17.60
2022-08-26T01:47:30.997Z,17.50
2022-08-26T01:50:03.008Z,17.50
2022-08-26T01:52:33.333Z,17.50
2022-08-26T01:55:01.403Z,17.50
2022-08-26T01:57:29.367Z,17.50
2022-08-26T01:59:59.537Z,17.50
2022-08-26T02:02:27.251Z,17.50
2022-08-26T02:04:58.677Z,17.40
2022-08-26T02:07:27.108Z,17.40
2022-08-26T02:09:55.591Z,17.40
2022-08-26T02:12:23.001Z,17.40
2022-08-26T02:14:53.826Z,17.40
2022-08-26T02:17:26.235Z,17.30
2022-08-26T02:19:53.888Z,17.30
2022-08-26T02:22:24.680Z,17.30
2022-08-26T02:25:01.304Z,17.20
2022-08-26T02:27:32.893Z,17.30
2022-08-26T02:30:21.412Z,17.20
2022-08-26T02:32:49.607Z,17.20
2022-08-26T02:35:20.064Z,17.20
2022-08-26T02:37:49.498Z,17.20
2022-08-26T02:40:21.794Z,17.20
2022-08-26T02:42:49.696Z,17.20
2022-08-26T02:45:23.354Z,17.20
2022-08-26T02:47:52.373Z,17.20
2022-08-26T02:50:20.224Z,17.00
2022-08-26T02:52:48.511Z,17.10
2022-08-26T02:55:16.215Z,17.00
2022-08-26T02:57:43.633Z,17.00
2022-08-26T03:00:14.884Z,17.00
2022-08-26T03:02:42.181Z,17.00
2022-08-26T03:05:09.958Z,17.00
2022-08-26T03:07:37.153Z,17.00
2022-08-26T03:10:08.370Z,17.00
2022-08-26T03:12:37.166Z,17.00
2022-08-26T03:15:15.618Z,16.90
2022-08-26T03:17:48.365Z,16.90
2022-08-26T03:20:17.512Z,16.90
2022-08-26T03:22:45.487Z,16.90
2022-08-26T03:25:14.766Z,16.90
2022-08-26T03:27:43.024Z,16.90
2022-08-26T03:30:30.496Z,16.90
2022-08-26T03:32:57.740Z,16.90
2022-08-26T03:35:25.894Z,16.90
2022-08-26T03:37:53.835Z,16.90
2022-08-26T03:40:21.647Z,16.80
2022-08-26T03:42:50.462Z,16.90
2022-08-26T03:45:19.565Z,16.80
2022-08-26T03:47:48.029Z,16.80
2022-08-26T03:50:22.603Z,16.80
2022-08-26T03:52:52.148Z,16.80
2022-08-26T03:55:20.539Z,16.80
2022-08-26T03:57:50.993Z,16.80
2022-08-26T04:00:18.780Z,16.80
2022-08-26T04:02:48.902Z,16.80
2022-08-26T04:05:18.383Z,16.70
2022-08-26T04:07:46.506Z,16.70
2022-08-26T04:10:20.155Z,16.60
2022-08-26T04:12:47.762Z,16.60
2022-08-26T04:15:17.790Z,16.60
2022-08-26T04:17:45.044Z,16.60
2022-08-26T04:20:14.049Z,16.60
2022-08-26T04:22:43.539Z,16.60
2022-08-26T04:25:11.523Z,16.60
2022-08-26T04:27:39.231Z,16.60
2022-08-26T04:30:09.119Z,16.70
2022-08-26T04:32:37.409Z,16.70
2022-08-26T04:35:05.623Z,16.70
2022-08-26T04:37:33.687Z,16.70
2022-08-26T04:40:00.915Z,16.70
2022-08-26T04:42:29.487Z,16.70
2022-08-26T04:44:56.542Z,16.60
2022-08-26T04:47:23.592Z,16.60
2022-08-26T04:49:54.585Z,16.70
2022-08-26T04:52:21.666Z,16.70
2022-08-26T04:54:50.127Z,16.70
2022-08-26T04:57:17.121Z,16.70
2022-08-26T04:59:44.262Z,16.70
2022-08-26T05:02:12.001Z,16.70
2022-08-26T05:04:38.983Z,16.70
2022-08-26T05:07:06.336Z,16.80
2022-08-26T05:09:33.493Z,16.80
2022-08-26T05:12:00.455Z,16.80
2022-08-26T05:14:27.609Z,16.90
2022-08-26T05:16:54.776Z,16.90
2022-08-26T05:19:21.931Z,16.90
2022-08-26T05:21:49.372Z,17.00
2022-08-26T05:24:18.037Z,17.10
2022-08-26T05:26:47.291Z,17.10
2022-08-26T05:29:15.751Z,17.10
2022-08-26T05:31:43.982Z,17.20
2022-08-26T05:34:11.066Z,17.20
2022-08-26T05:36:38.925Z,17.30
2022-08-26T05:39:07.209Z,17.30
2022-08-26T05:41:38.477Z,17.30
2022-08-26T05:44:08.907Z,17.40
2022-08-26T05:46:37.287Z,17.40
2022-08-26T05:49:05.912Z,17.50
2022-08-26T05:51:33.531Z,17.50
2022-08-26T05:54:03.557Z,17.50
2022-08-26T05:56:30.752Z,17.60
2022-08-26T05:58:58.552Z,17.60
2022-08-26T06:01:28.747Z,17.70
2022-08-26T06:03:59.766Z,17.80
2022-08-26T06:06:35.157Z,18.00
2022-08-26T06:09:05.273Z,18.10
2022-08-26T06:11:33.408Z,18.20
2022-08-26T06:14:04.358Z,18.30
2022-08-26T06:16:34.812Z,18.30
2022-08-26T06:19:03.589Z,18.50
2022-08-26T06:21:40.545Z,18.50
2022-08-26T06:24:30.165Z,18.60
2022-08-26T06:27:01.270Z,18.80
2022-08-26T06:29:30.541Z,18.90
2022-08-26T06:31:58.162Z,19.00
2022-08-26T06:34:30.245Z,19.10
2022-08-26T06:37:01.156Z,19.20
2022-08-26T06:39:30.777Z,19.30
2022-08-26T06:41:59.597Z,19.30
2022-08-26T06:44:27.313Z,19.40
2022-08-26T06:46:54.766Z,19.40
2022-08-26T06:49:27.470Z,19.50
2022-08-26T06:52:00.287Z,19.80
2022-08-26T06:54:30.360Z,19.90
2022-08-26T06:56:57.689Z,20.00
2022-08-26T06:59:24.715Z,20.20
2022-08-26T07:01:52.444Z,20.20
2022-08-26T07:04:23.348Z,20.40
2022-08-26T07:06:53.505Z,20.50
2022-08-26T07:09:26.044Z,20.60
2022-08-26T07:11:54.139Z,20.80
2022-08-26T07:14:21.876Z,20.80
2022-08-26T07:16:50.536Z,21.00
2022-08-26T07:19:27.579Z,21.10
2022-08-26T07:22:02.185Z,21.20
2022-08-26T07:24:31.225Z,21.30
2022-08-26T07:27:03.882Z,21.40
2022-08-26T07:29:33.343Z,21.60
2022-08-26T07:32:01.748Z,21.70
2022-08-26T07:34:28.902Z,21.90
2022-08-26T07:36:57.063Z,22.00
2022-08-26T07:39:25.033Z,22.20
2022-08-26T07:41:52.915Z,22.30
2022-08-26T07:44:19.941Z,22.30
2022-08-26T07:46:52.231Z,22.40
2022-08-26T07:49:21.705Z,22.50
2022-08-26T07:51:49.895Z,22.50
2022-08-26T07:54:17.039Z,22.60
2022-08-26T07:56:44.745Z,22.80
2022-08-26T07:59:13.593Z,23.00
2022-08-26T08:01:41.453Z,23.00
2022-08-26T08:04:17.836Z,23.20
2022-08-26T08:06:46.495Z,23.40
2022-08-26T08:09:16.054Z,23.50
2022-08-26T08:11:44.885Z,23.50
2022-08-26T08:14:13.190Z,23.50
2022-08-26T08:16:45.775Z,23.70
2022-08-26T08:19:14.768Z,23.90
2022-08-26T08:21:43.305Z,24.00
2022-08-26T08:24:11.727Z,24.10
2022-08-26T08:26:39.352Z,24.20
2022-08-26T08:29:08.456Z,24.40
2022-08-26T08:31:56.620Z,24.50
2022-08-26T08:34:24.880Z,24.50
2022-08-26T08:36:54.206Z,24.50
2022-08-26T08:39:22.342Z,24.70
2022-08-26T08:42:07.767Z,24.70
2022-08-26T08:44:39.586Z,24.80
2022-08-26T08:48:01.142Z,24.90
2022-08-26T08:50:33.840Z,25.00
2022-08-26T08:53:37.792Z,25.00
2022-08-26T08:56:26.667Z,25.20
2022-08-26T08:59:17.669Z,25.30
2022-08-26T09:02:06.483Z,25.40
2022-08-26T09:04:45.546Z,25.60
2022-08-26T09:07:18.687Z,27.10
2022-08-26T09:09:57.287Z,26.10
2022-08-26T09:12:30.090Z,26.00
2022-08-26T09:15:16.583Z,26.20
2022-08-26T09:18:11.159Z,26.20
2022-08-26T09:20:58.219Z,26.20
2022-08-26T09:23:26.295Z,26.20
2022-08-26T09:25:57.223Z,26.40
2022-08-26T09:28:27.200Z,26.50
2022-08-26T09:31:20.444Z,26.80
2022-08-26T09:33:48.752Z,26.80
2022-08-26T09:36:39.058Z,26.80
2022-08-26T09:39:27.905Z,27.00
2022-08-26T09:42:20.828Z,27.00
2022-08-26T09:45:01.142Z,27.10
2022-08-26T09:47:54.583Z,27.10
2022-08-26T09:50:29.350Z,27.40
2022-08-26T09:53:13.204Z,27.70
2022-08-26T09:55:43.453Z,27.60
2022-08-26T09:58:16.739Z,27.60
2022-08-26T10:00:57.393Z,27.70
2022-08-26T10:03:31.727Z,27.70
2022-08-26T10:06:00.252Z,27.80
2022-08-26T10:08:34.445Z,27.80
2022-08-26T10:11:05.769Z,27.90
2022-08-26T10:13:44.548Z,28.00
2022-08-26T10:16:20.482Z,28.20
2022-08-26T10:18:59.896Z,28.30
2022-08-26T10:21:35.593Z,28.10
2022-08-26T10:24:04.563Z,28.10
2022-08-26T10:26:50.931Z,28.10
2022-08-26T10:29:35.868Z,28.20
2022-08-26T10:32:13.906Z,28.30
2022-08-26T10:34:41.913Z,28.30
2022-08-26T10:37:18.058Z,28.50
2022-08-26T10:40:02.659Z,28.60
2022-08-26T10:42:54.516Z,28.70
2022-08-26T10:45:32.369Z,28.90
2022-08-26T10:48:09.018Z,29.00
2022-08-26T10:50:39.234Z,29.20
2022-08-26T10:53:44.675Z,29.10
2022-08-26T10:56:44.030Z,29.00
2022-08-26T10:59:31.196Z,29.00
2022-08-26T11:02:03.926Z,29.00
2022-08-26T11:04:58.363Z,29.20
2022-08-26T11:07:52.620Z,29.50
2022-08-26T11:10:22.636Z,29.90
2022-08-26T11:13:03.847Z,30.00
2022-08-26T11:15:31.426Z,30.00
2022-08-26T11:18:04.345Z,30.00
2022-08-26T11:20:57.797Z,30.10
2022-08-26T11:23:26.789Z,29.90
2022-08-26T11:25:57.323Z,29.90
2022-08-26T11:28:45.110Z,29.80
2022-08-26T11:31:37.913Z,29.60
2022-08-26T11:34:10.758Z,29.50
2022-08-26T11:36:54.413Z,29.40
2022-08-26T11:39:36.532Z,29.60
2022-08-26T11:42:35.611Z,29.90
2022-08-26T11:45:14.303Z,30.00
2022-08-26T11:47:42.084Z,30.20
2022-08-26T11:50:21.173Z,30.30
2022-08-26T11:52:53.592Z,30.20
2022-08-26T11:55:23.273Z,29.90
2022-08-26T11:57:57.849Z,29.90
2022-08-26T12:00:33.271Z,30.10
2022-08-26T12:03:06.376Z,30.30
2022-08-26T12:05:43.264Z,30.30
2022-08-26T12:08:16.366Z,30.10
2022-08-26T12:10:43.874Z,30.20
2022-08-26T12:13:25.027Z,30.20
2022-08-26T12:15:57.212Z,30.20
2022-08-26T12:18:34.340Z,30.20
2022-08-26T12:21:12.773Z,30.20
2022-08-26T12:23:44.048Z,30.30
2022-08-26T12:26:13.059Z,30.40
2022-08-26T12:28:53.130Z,30.30
2022-08-26T12:31:30.398Z,30.40
2022-08-26T12:34:00.565Z,30.30
2022-08-26T12:36:36.306Z,30.30
2022-08-26T12:39:16.331Z,30.40
2022-08-26T12:41:56.187Z,30.40
2022-08-26T12:44:53.978Z,30.40
2022-08-26T12:47:41.823Z,30.40
2022-08-26T12:50:19.275Z,30.40
2022-08-26T12:53:13.370Z,30.30
2022-08-26T12:55:43.886Z,30.30
2022-08-26T12:58:16.758Z,30.30
2022-08-26T13:01:04.246Z,30.00
2022-08-26T13:03:34.514Z,30.10
2022-08-26T13:06:22.845Z,30.10
2022-08-26T13:08:59.343Z,30.00
2022-08-26T13:11:45.095Z,30.20
2022-08-26T13:14:15.525Z,30.20
2022-08-26T13:16:52.328Z,30.20
2022-08-26T13:19:22.428Z,30.20
2022-08-26T13:22:00.434Z,30.20
2022-08-26T13:24:38.159Z,30.30
2022-08-26T13:27:06.797Z,30.20
2022-08-26T13:29:34.337Z,30.20
2022-08-26T13:32:02.018Z,30.30
2022-08-26T13:34:30.862Z,30.30
2022-08-26T13:36:58.561Z,30.20
2022-08-26T13:39:26.111Z,30.20
2022-08-26T13:41:53.242Z,30.20
2022-08-26T13:44:21.611Z,30.00
2022-08-26T13:46:48.971Z,30.20
2022-08-26T13:49:16.121Z,30.20
2022-08-26T13:51:43.233Z,30.30
2022-08-26T13:54:10.365Z,30.50
2022-08-26T13:56:37.660Z,30.70
2022-08-26T13:59:05.650Z,30.60
2022-08-26T14:01:34.769Z,30.50
2022-08-26T14:04:03.176Z,30.60
2022-08-26T14:06:30.833Z,30.60
2022-08-26T14:08:59.107Z,30.50
2022-08-26T14:11:28.465Z,30.30
2022-08-26T14:13:55.665Z,30.30
2022-08-26T14:16:31.642Z,30.30
2022-08-26T14:19:01.376Z,30.30
2022-08-26T14:21:34.321Z,30.30
2022-08-26T14:24:01.459Z,30.30
2022-08-26T14:26:29.752Z,30.20
2022-08-26T14:28:59.111Z,30.20
2022-08-26T14:31:29.363Z,30.30
2022-08-26T14:34:04.539Z,30.30
2022-08-26T14:36:32.635Z,30.30
2022-08-26T14:39:07.213Z,30.30
2022-08-26T14:41:38.247Z,30.50
2022-08-26T14:44:10.807Z,30.50
2022-08-26T14:47:01.193Z,30.30
2022-08-26T14:49:28.545Z,30.20
2022-08-26T14:51:55.751Z,30.00
2022-08-26T14:54:23.151Z,29.90
2022-08-26T14:56:56.803Z,29.90
2022-08-26T14:59:29.888Z,29.90
2022-08-26T15:01:57.952Z,29.90
2022-08-26T15:04:25.401Z,29.90
2022-08-26T15:06:57.257Z,29.90
2022-08-26T15:09:24.739Z,29.90
2022-08-26T15:11:53.260Z,29.90
2022-08-26T15:14:21.775Z,29.90
2022-08-26T15:16:50.996Z,30.00
2022-08-26T15:19:19.047Z,30.00
2022-08-26T15:21:47.424Z,30.00
2022-08-26T15:24:17.345Z,30.00
2022-08-26T15:26:45.190Z,30.10
2022-08-26T15:29:12.566Z,30.20
2022-08-26T15:31:39.666Z,30.20
2022-08-26T15:34:12.105Z,30.10
2022-08-26T15:36:44.923Z,30.00
2022-08-26T15:39:13.110Z,29.90
2022-08-26T15:41:40.317Z,30.00
2022-08-26T15:44:08.304Z,30.00
2022-08-26T15:46:37.441Z,30.00
2022-08-26T15:49:06.255Z,30.10
2022-08-26T15:51:45.631Z,30.20
2022-08-26T15:54:16.134Z,30.20
2022-08-26T15:56:43.826Z,30.10
2022-08-26T15:59:12.556Z,30.10
2022-08-26T16:01:40.585Z,30.00
2022-08-26T16:04:08.318Z,30.00
2022-08-26T16:06:39.277Z,29.90
2022-08-26T16:09:08.407Z,29.80
2022-08-26T16:11:37.808Z,29.80
2022-08-26T16:14:06.000Z,29.70
2022-08-26T16:16:33.530Z,29.70
2022-08-26T16:19:05.561Z,29.60
2022-08-26T16:21:35.362Z,29.70
2022-08-26T16:24:03.393Z,29.70
2022-08-26T16:26:33.161Z,29.70
2022-08-26T16:29:09.951Z,29.60
2022-08-26T16:31:38.298Z,29.60
2022-08-26T16:34:07.096Z,29.60
2022-08-26T16:36:34.824Z,29.40
2022-08-26T16:39:02.647Z,29.30
2022-08-26T16:41:31.129Z,29.20
2022-08-26T16:43:58.679Z,29.10
2022-08-26T16:46:26.628Z,29.00
2022-08-26T16:48:58.564Z,28.80
2022-08-26T16:51:27.383Z,28.60
2022-08-26T16:53:56.347Z,28.60
2022-08-26T16:56:33.686Z,28.40
2022-08-26T16:59:04.212Z,28.40
2022-08-26T17:01:31.485Z,28.30
2022-08-26T17:03:58.672Z,28.20
2022-08-26T17:06:25.751Z,28.20
2022-08-26T17:08:53.162Z,28.10
2022-08-26T17:11:20.314Z,28.00
2022-08-26T17:13:47.376Z,27.80
2022-08-26T17:16:15.433Z,27.70
2022-08-26T17:18:42.631Z,27.60
2022-08-26T17:21:35.614Z,27.20
2022-08-26T17:24:04.971Z,27.30
2022-08-26T17:26:33.240Z,27.30
2022-08-26T17:29:00.458Z,27.30
2022-08-26T17:31:27.453Z,27.20
2022-08-26T17:33:55.548Z,27.00
2022-08-26T17:36:27.646Z,26.90
2022-08-26T17:38:55.992Z,26.80
2022-08-26T17:41:23.092Z,26.70
2022-08-26T17:43:50.166Z,26.50
2022-08-26T17:46:17.400Z,26.20
2022-08-26T17:48:44.498Z,26.00
2022-08-26T17:51:14.456Z,25.90
2022-08-26T17:53:42.198Z,26.00
2022-08-26T17:56:11.951Z,25.90
2022-08-26T17:58:40.645Z,25.80
2022-08-26T18:01:15.381Z,25.90
2022-08-26T18:03:42.908Z,25.90
2022-08-26T18:06:11.854Z,25.70
2022-08-26T18:08:39.595Z,25.50
2022-08-26T18:11:16.255Z,25.30
2022-08-26T18:13:47.508Z,25.30
2022-08-26T18:16:15.324Z,25.20
2022-08-26T18:18:43.184Z,25.10
2022-08-26T18:21:19.281Z,25.00
2022-08-26T18:23:47.060Z,24.90
2022-08-26T18:26:22.896Z,24.80
2022-08-26T18:28:49.950Z,24.70
2022-08-26T18:31:17.161Z,24.80
2022-08-26T18:33:44.717Z,24.70
2022-08-26T18:36:27.308Z,24.70
2022-08-26T18:38:55.488Z,24.50
2022-08-26T18:41:49.601Z,24.50
2022-08-26T18:44:18.630Z,24.40
2022-08-26T18:46:46.592Z,24.30
2022-08-26T18:49:16.142Z,24.30
2022-08-26T18:51:44.494Z,24.20
2022-08-26T18:54:12.426Z,24.20
2022-08-26T18:56:41.057Z,24.10
2022-08-26T18:59:09.109Z,24.10
2022-08-26T19:01:38.365Z,24.00
2022-08-26T19:04:07.607Z,23.90
2022-08-26T19:06:36.053Z,23.90
2022-08-26T19:09:09.260Z,23.90
2022-08-26T19:11:42.996Z,23.90
2022-08-26T19:14:13.817Z,23.80
2022-08-26T19:16:44.160Z,23.80
2022-08-26T19:19:12.468Z,23.70
2022-08-26T19:21:40.233Z,23.60
2022-08-26T19:24:15.642Z,23.60
2022-08-26T19:26:48.804Z,23.70
2022-08-26T19:31:50.889Z,23.50
2022-08-26T19:34:20.240Z,23.50
2022-08-26T19:36:48.928Z,23.40
2022-08-26T19:39:16.380Z,23.30
2022-08-26T19:41:44.460Z,23.30
2022-08-26T19:44:36.672Z,23.20
2022-08-26T19:47:05.785Z,23.00
2022-08-26T19:49:33.813Z,23.00
2022-08-26T19:52:04.415Z,22.90
2022-08-26T19:54:32.067Z,22.90
2022-08-26T19:56:59.500Z,22.90
2022-08-26T19:59:26.925Z,22.90
2022-08-26T20:02:01.294Z,22.90
2022-08-26T20:04:31.075Z,22.90
2022-08-26T20:07:00.463Z,22.90
2022-08-26T20:09:29.785Z,22.80
2022-08-26T20:11:57.434Z,22.70
2022-08-26T20:14:26.119Z,22.60
2022-08-26T20:16:53.392Z,22.50
2022-08-26T20:19:39.683Z,22.40
2022-08-26T20:22:08.140Z,22.50
2022-08-26T20:24:36.317Z,22.40
2022-08-26T20:27:07.819Z,22.40
2022-08-26T20:29:36.724Z,22.30
2022-08-26T20:32:06.218Z,22.20
2022-08-26T20:34:33.936Z,22.20
2022-08-26T20:37:01.880Z,22.30
2022-08-26T20:39:29.933Z,22.30
2022-08-26T20:41:57.868Z,22.30
2022-08-26T20:44:25.619Z,22.20
2022-08-26T20:46:53.065Z,22.20
2022-08-26T20:49:20.312Z,22.20
2022-08-26T20:51:51.579Z,22.20
2022-08-26T20:54:22.989Z,22.20
2022-08-26T20:56:52.626Z,22.10
2022-08-26T20:59:21.198Z,22.00
2022-08-26T21:01:49.167Z,21.80
2022-08-26T21:04:20.866Z,21.70
2022-08-26T21:06:52.314Z,21.70
2022-08-26T21:09:22.563Z,21.80
2022-08-26T21:11:49.891Z,21.80
2022-08-26T21:14:17.681Z,21.80
2022-08-26T21:16:45.992Z,21.80
2022-08-26T21:19:15.233Z,21.80
2022-08-26T21:21:43.121Z,21.70
2022-08-26T21:24:10.388Z,21.60
2022-08-26T21:26:37.807Z,21.60
2022-08-26T21:29:06.753Z,21.60
2022-08-26T21:31:35.159Z,21.60
2022-08-26T21:34:02.420Z,21.50
2022-08-26T21:36:29.653Z,21.40
2022-08-26T21:38:58.288Z,21.50
2022-08-26T21:41:26.251Z,21.40
2022-08-26T21:43:59.024Z,21.40
2022-08-26T21:46:29.275Z,21.30
2022-08-26T21:49:01.669Z,21.30
2022-08-26T21:51:31.603Z,21.30
2022-08-26T21:53:59.968Z,21.30
2022-08-26T21:56:31.699Z,21.20
2022-08-26T21:58:59.316Z,21.10
2022-08-26T22:01:28.567Z,21.00
2022-08-26T22:03:55.870Z,21.00
2022-08-26T22:06:27.255Z,21.10
2022-08-26T22:08:55.435Z,21.10
2022-08-26T22:11:22.535Z,21.10
2022-08-26T22:13:50.579Z,21.10
2022-08-26T22:16:19.022Z,21.10
2022-08-26T22:18:46.352Z,21.10
2022-08-26T22:21:17.350Z,21.10
2022-08-26T22:23:45.069Z,20.90
2022-08-26T22:26:15.239Z,20.80
2022-08-26T22:28:52.637Z,20.80
2022-08-26T22:31:28.060Z,20.70
2022-08-26T22:34:06.935Z,20.70
2022-08-26T22:36:34.153Z,20.70
2022-08-26T22:39:01.563Z,20.70
2022-08-26T22:41:28.794Z,20.70
2022-08-26T22:44:02.733Z,20.70
2022-08-26T22:46:29.819Z,20.70
2022-08-26T22:48:56.960Z,20.70
2022-08-26T22:51:23.961Z,20.70
2022-08-26T22:53:51.085Z,20.60
2022-08-26T22:56:19.173Z,20.60
2022-08-26T22:58:46.222Z,20.60
2022-08-26T23:01:13.877Z,20.60
2022-08-26T23:03:41.471Z,20.50
2022-08-26T23:06:12.592Z,20.40
2022-08-26T23:08:41.944Z,20.40
2022-08-26T23:11:11.156Z,20.40
2022-08-26T23:13:38.930Z,20.20
2022-08-26T23:16:09.543Z,20.20
2022-08-26T23:18:37.126Z,20.20
2022-08-26T23:21:04.663Z,20.20
2022-08-26T23:23:31.878Z,20.30
2022-08-26T23:25:58.970Z,20.20
2022-08-26T23:28:26.531Z,20.30
2022-08-26T23:30:54.019Z,20.10
2022-08-26T23:33:21.605Z,20.20
2022-08-26T23:35:48.609Z,20.20
2022-08-26T23:38:16.626Z,20.10
2022-08-26T23:40:43.709Z,20.00
2022-08-26T23:43:16.421Z,19.90
2022-08-26T23:45:43.910Z,19.90
2022-08-26T23:48:11.113Z,19.90
2022-08-26T23:50:56.842Z,19.80
2022-08-26T23:53:24.149Z,19.80
2022-08-26T23:55:52.624Z,19.80
2022-08-26T23:58:21.313Z,19.80
